Impacts TAF Board INFO
FOR SITUATIONAL AWARENESS. NOT TO BE USED FOR FLIGHT PLANNING PURPOSES.
IDs:

KMSP - Minneapolis-St Paul, MN, US

Issued at 2106 UTC 19 Jun 2018
Updated at 2158 UTC 19 Jun 2018
Potential Impact None Slight Moderate High
Time<<20/10Z 20/11Z 20/12Z 20/13Z 20/14Z 20/15Z 20/16Z 20/17Z 20/18Z 20/19Z 20/20Z 20/21Z 20/22Z>>
Type PRVL PRVL PRVL PRVL PRVL PRVL PRVL PRVL PRVL PRVL PRVL PRVL PRVL
VIS >6 >6 >6 >6 >6 >6 >6 >6 >6 >6 >6 >6 >6
CIG 70 70 70 70 70 -- -- -- -- -- -- -- --
Cover OVC OVC OVC OVC OVC SCT SCT SCT SCT SCT SCT SCT SCT
FltCat VFR VFR VFR VFR VFR VFR VFR VFR VFR VFR VFR VFR VFR
WX -- -- -- -- -- -- -- -- -- -- -- -- --
WDir 60 60 60 60 60 40 40 40 40 40 40 40 40
WSpd 6 6 6 6 6 8 8 8 8 8 8 8 8
WGst -- -- -- -- -- -- -- -- -- -- -- -- --

Raw TAF
KMSP 192106Z 1921/2024 07012KT P6SM VCSH OVC015
  FM200000 07010KT P6SM OVC025
  FM200700 06006KT P6SM OVC070
  FM201500 04008KT P6SM SCT250


METAR Board
Radar Display
Forecast Discussion

FOR SITUATIONAL AWARENESS. NOT TO BE USED FOR FLIGHT PLANNING PURPOSES.